Terminal Aerodrome Forecast
Issued by NWS Central Illinois

Home | Current Version | Previous Version | Text Only | Print | Product List | Glossary On
Versions: 1 2 3 4 5 6 7 8 9 10 11 12 13 14 15 16 17 18 19 20 21
000
FTUS43 KILX 230300 AAB
TAFSPI
TAF AMD
KSPI 230358Z 2304/2324 18012G22KT P6SM VCSH FEW012 OVC050
      WS020/22040KT
     FM230600 17012KT 3SM -RADZ BR OVC010 WS020/22040KT
     FM231400 16014G20KT 4SM BR VCSH OVC010=

USA.gov is the U.S. government's official web portal to all federal, state and local government web resources and services.